Time;durP1;ratioP1;P1;durP2;ratioP2;P2;SDS_P1;SDS_P2;PMS_P1;PMS_P2;Temp;Humidity;BMP_temperature;BMP_pressure;BME280_temperature;BME280_humidity;BME280_pressure;Samples;Min_cycle;Max_cycle;Signal;HPM_P1;HPM_P2
2021/09/30 00:02:06;;;;;;;7.00;2.10;;;9.20;99.90;;;;;;5038745;28;20186;-77
2021/09/30 00:04:32;;;;;;;6.53;2.10;;;9.10;99.90;;;;;;5071925;28;20209;-77
2021/09/30 00:06:58;;;;;;;3.83;2.23;;;9.20;99.90;;;;;;5071947;28;20200;-77
2021/09/30 00:09:23;;;;;;;2.60;1.90;;;9.10;99.90;;;;;;5038350;28;20172;-77
2021/09/30 00:11:53;;;;;;;5.60;2.00;;;9.10;99.90;;;;;;5055122;28;20564;-77
2021/09/30 00:17:11;;;;;;;3.33;2.17;;;9.20;99.90;;;;;;5071944;28;20188;-77
2021/09/30 00:46:46;;;;;;;4.03;2.83;;;9.20;99.90;;;;;;5071455;28;20180;-77
2021/09/30 00:54:29;;;;;;;3.47;2.97;;;9.10;99.90;;;;;;5054490;28;20181;-77
2021/09/30 01:52:57;;;;;;;5.77;3.13;;;9.00;99.90;;;;;;5056819;28;20188;-77
2021/09/30 02:20:24;;;;;;;8.60;3.10;;;8.90;99.90;;;;;;5060280;28;20196;-77
2021/09/30 02:23:26;;;;;;;5.47;2.93;;;8.90;99.90;;;;;;5059544;28;20685;-77
2021/09/30 03:00:43;;;;;;;7.20;4.07;;;8.70;99.90;;;;;;5059415;28;20210;-77
2021/09/30 03:03:09;;;;;;;6.80;3.43;;;8.80;99.90;;;;;;5039528;28;20288;-77
2021/09/30 03:05:35;;;;;;;4.57;3.70;;;8.70;99.90;;;;;;5077381;23;20229;-75
2021/09/30 03:08:00;;;;;;;6.17;3.53;;;8.70;99.90;;;;;;5039724;28;20169;-75
2021/09/30 03:10:26;;;;;;;7.17;3.67;;;8.70;99.90;;;;;;5056113;28;20192;-75
2021/09/30 03:12:52;;;;;;;8.17;4.10;;;8.70;99.90;;;;;;5056446;28;20178;-76
2021/09/30 03:17:52;;;;;;;8.03;4.03;;;8.80;99.90;;;;;;5071969;28;20204;-75
2021/09/30 03:20:46;;;;;;;5.90;3.80;;;8.80;99.90;;;;;;5073688;28;20205;-75
2021/09/30 03:23:15;;;;;;;5.23;3.37;;;8.70;99.90;;;;;;5060104;28;20262;-75
2021/09/30 03:25:43;;;;;;;9.60;4.13;;;8.70;99.90;;;;;;5056122;28;20255;-75
2021/09/30 03:28:08;;;;;;;6.60;4.17;;;8.70;99.90;;;;;;5055936;28;20174;-75
2021/09/30 03:30:34;;;;;;;5.57;4.00;;;8.70;99.90;;;;;;5055889;28;20190;-77
2021/09/30 03:33:07;;;;;;;7.97;4.13;;;8.70;99.90;;;;;;5056043;28;20179;-76
2021/09/30 03:35:32;;;;;;;11.23;4.40;;;8.60;99.90;;;;;;5055937;28;20199;-75
2021/09/30 03:38:00;;;;;;;7.13;4.13;;;8.60;99.90;;;;;;5055662;28;20182;-77
2021/09/30 03:40:26;;;;;;;8.73;3.90;;;8.70;99.90;;;;;;5055695;28;20226;-75
2021/09/30 03:42:51;;;;;;;7.03;3.77;;;8.70;99.90;;;;;;5072445;28;20174;-75
2021/09/30 03:45:17;;;;;;;7.50;3.90;;;8.70;99.90;;;;;;5055763;28;20323;-75
2021/09/30 03:47:42;;;;;;;8.93;4.00;;;8.70;99.90;;;;;;5072353;28;20184;-76
2021/09/30 03:50:15;;;;;;;10.73;4.43;;;8.70;99.90;;;;;;5071964;28;20182;-75
2021/09/30 03:55:30;;;;;;;7.30;3.80;;;8.70;99.90;;;;;;5057012;28;20207;-76
2021/09/30 04:00:40;;;;;;;9.93;3.97;;;8.80;99.90;;;;;;5072258;28;20705;-75
2021/09/30 04:03:05;;;;;;;8.27;4.20;;;8.70;99.90;;;;;;5055431;28;20176;-77
2021/09/30 04:05:31;;;;;;;7.60;3.80;;;8.70;99.90;;;;;;5055303;28;20210;-75
2021/09/30 04:07:57;;;;;;;8.57;3.63;;;8.80;99.90;;;;;;5054957;28;20183;-77
2021/09/30 04:10:22;;;;;;;7.00;4.10;;;8.70;99.90;;;;;;5071978;28;20202;-76
2021/09/30 04:12:48;;;;;;;6.87;3.63;;;8.70;99.90;;;;;;5054891;28;20562;-76
2021/09/30 04:15:13;;;;;;;7.13;3.50;;;8.70;99.90;;;;;;5055060;28;20197;-75
2021/09/30 04:17:39;;;;;;;6.37;3.20;;;8.70;99.90;;;;;;5072904;28;20186;-76
2021/09/30 04:20:05;;;;;;;7.10;3.63;;;8.70;99.90;;;;;;5054656;28;20254;-76
2021/09/30 04:22:30;;;;;;;8.43;3.67;;;8.60;99.90;;;;;;5055093;28;20188;-75
2021/09/30 04:24:56;;;;;;;7.30;3.40;;;8.70;99.90;;;;;;5054859;28;20292;-75
2021/09/30 04:27:22;;;;;;;8.23;3.63;;;8.70;99.90;;;;;;5054923;28;20212;-75
2021/09/30 04:29:47;;;;;;;9.83;3.73;;;8.60;99.90;;;;;;5054310;28;20187;-77
2021/09/30 04:32:13;;;;;;;4.80;3.30;;;8.60;99.90;;;;;;5054604;28;20186;-75
2021/09/30 04:34:39;;;;;;;7.87;3.63;;;8.60;99.90;;;;;;5054744;28;20197;-75
2021/09/30 04:37:04;;;;;;;8.53;4.00;;;8.60;99.90;;;;;;5071589;28;20177;-75
2021/09/30 04:39:31;;;;;;;5.07;3.30;;;8.60;99.90;;;;;;5054444;28;20224;-77
2021/09/30 04:41:56;;;;;;;7.03;3.87;;;8.50;99.90;;;;;;5071340;28;20180;-75
2021/09/30 04:44:22;;;;;;;8.07;3.57;;;8.50;99.90;;;;;;5070901;28;20196;-75
2021/09/30 04:46:48;;;;;;;7.63;4.00;;;8.50;99.90;;;;;;5050812;28;20178;-77
2021/09/30 04:49:13;;;;;;;10.23;3.87;;;8.50;99.90;;;;;;5046350;28;20194;-76
2021/09/30 04:51:39;;;;;;;6.67;3.77;;;8.50;99.90;;;;;;5051084;28;20181;-76
2021/09/30 04:54:04;;;;;;;9.80;3.33;;;8.50;99.90;;;;;;5034381;28;20268;-75
2021/09/30 04:56:30;;;;;;;8.43;3.10;;;8.50;99.90;;;;;;5034119;28;20209;-76
2021/09/30 04:58:56;;;;;;;8.73;3.70;;;8.40;99.90;;;;;;5039146;28;20182;-75
2021/09/30 05:01:21;;;;;;;5.60;3.63;;;8.40;99.90;;;;;;5054250;28;20213;-75
2021/09/30 05:03:47;;;;;;;6.77;3.57;;;8.40;99.90;;;;;;5054128;28;20203;-76
2021/09/30 05:06:13;;;;;;;6.57;3.97;;;8.40;99.90;;;;;;5050946;28;20234;-75
2021/09/30 05:08:41;;;;;;;6.07;3.60;;;8.40;99.90;;;;;;5048068;28;20635;-76
2021/09/30 05:11:06;;;;;;;11.47;4.27;;;8.30;99.90;;;;;;5054786;28;20178;-76
2021/09/30 05:13:39;;;;;;;6.27;3.70;;;8.30;99.90;;;;;;5054238;28;20648;-75
2021/09/30 05:16:05;;;;;;;8.87;4.00;;;8.30;99.90;;;;;;5055688;28;20638;-73
2021/09/30 05:18:31;;;;;;;9.73;3.87;;;8.30;99.90;;;;;;5066412;28;20179;-75
2021/09/30 05:20:57;;;;;;;10.93;4.30;;;8.30;99.90;;;;;;5032710;28;20217;-75
2021/09/30 05:23:23;;;;;;;7.00;3.53;;;8.30;99.90;;;;;;5032552;28;20634;-75
2021/09/30 05:25:49;;;;;;;9.90;3.57;;;8.30;99.90;;;;;;5050607;28;20184;-78
2021/09/30 05:28:14;;;;;;;7.67;3.80;;;8.30;99.90;;;;;;5050319;28;20182;-75
2021/09/30 05:30:40;;;;;;;8.77;4.27;;;8.30;99.90;;;;;;5033833;28;20178;-75
2021/09/30 05:33:05;;;;;;;8.03;3.90;;;8.20;99.90;;;;;;5067783;28;20178;-76
2021/09/30 05:35:31;;;;;;;8.90;4.17;;;8.30;99.90;;;;;;5033811;28;20287;-76
2021/09/30 05:37:57;;;;;;;9.97;4.40;;;8.30;99.90;;;;;;5050406;28;20208;-74
2021/09/30 05:40:23;;;;;;;10.37;3.70;;;8.30;99.90;;;;;;5033546;28;20197;-75
2021/09/30 05:42:49;;;;;;;10.53;3.70;;;8.20;99.90;;;;;;5037092;28;20227;-76
2021/09/30 05:45:16;;;;;;;9.87;3.73;;;8.20;99.90;;;;;;5054560;28;20604;-75
2021/09/30 05:47:43;;;;;;;7.30;3.60;;;8.30;99.90;;;;;;5037926;28;20265;-75
2021/09/30 05:50:09;;;;;;;11.20;3.63;;;8.30;99.90;;;;;;5037815;28;20182;-75
2021/09/30 05:52:34;;;;;;;7.97;3.37;;;8.30;99.90;;;;;;5038109;28;20606;-78
2021/09/30 05:55:00;;;;;;;8.20;3.87;;;8.40;99.90;;;;;;5039211;28;20228;-78
2021/09/30 05:57:26;;;;;;;8.43;3.20;;;8.40;99.90;;;;;;5040027;28;20184;-80
2021/09/30 05:59:51;;;;;;;9.47;3.60;;;8.40;99.90;;;;;;5038568;28;20202;-80
2021/09/30 06:13:12;;;;;;;8.73;3.43;;;8.60;99.90;;;;;;5054628;28;20265;-79
2021/09/30 06:15:40;;;;;;;7.97;3.40;;;8.60;99.90;;;;;;5040970;28;20217;-79
2021/09/30 06:18:07;;;;;;;8.50;3.43;;;8.70;99.90;;;;;;5055318;28;20205;-77
2021/09/30 06:20:39;;;;;;;8.50;3.60;;;8.80;99.90;;;;;;5058226;28;20577;-78
2021/09/30 06:23:05;;;;;;;5.93;3.43;;;8.90;99.90;;;;;;5058538;28;20170;-79
2021/09/30 06:25:30;;;;;;;6.20;3.30;;;9.00;99.90;;;;;;5041049;28;20567;-77
2021/09/30 06:27:56;;;;;;;8.57;3.10;;;9.10;99.90;;;;;;5073877;28;20204;-77
2021/09/30 06:30:24;;;;;;;9.37;3.17;;;9.10;99.90;;;;;;5040608;28;20184;-77
2021/09/30 06:32:52;;;;;;;10.30;3.10;;;9.20;99.90;;;;;;5057936;28;20199;-78
2021/09/30 06:35:17;;;;;;;6.20;3.10;;;9.40;99.90;;;;;;5037155;28;20680;-78
2021/09/30 06:37:43;;;;;;;7.73;2.80;;;9.50;99.90;;;;;;5021555;28;20212;-77
2021/09/30 06:40:09;;;;;;;7.87;2.70;;;9.70;99.90;;;;;;5020820;28;20213;-78
2021/09/30 06:42:34;;;;;;;8.93;2.70;;;9.80;99.90;;;;;;5037276;28;20174;-76
2021/09/30 06:45:00;;;;;;;8.13;3.00;;;10.00;99.90;;;;;;5036746;28;20193;-75
2021/09/30 06:47:25;;;;;;;6.73;2.87;;;10.00;99.90;;;;;;5036032;28;20235;-75
2021/09/30 06:49:51;;;;;;;5.77;2.97;;;10.10;99.90;;;;;;5069898;28;20555;-75
2021/09/30 06:52:16;;;;;;;5.10;2.40;;;10.30;99.90;;;;;;5054307;28;20182;-74
2021/09/30 06:54:42;;;;;;;10.03;2.90;;;10.30;99.90;;;;;;5062006;28;20201;-74
2021/09/30 06:57:07;;;;;;;4.77;2.63;;;10.40;99.90;;;;;;5073047;28;20524;-79
2021/09/30 06:59:35;;;;;;;9.00;3.03;;;10.40;99.90;;;;;;5056679;28;20674;-78
2021/09/30 07:02:07;;;;;;;8.47;2.97;;;10.60;99.90;;;;;;5042071;28;20181;-78
2021/09/30 07:04:33;;;;;;;5.87;2.70;;;10.60;99.90;;;;;;5037422;28;20858;-78
2021/09/30 07:06:58;;;;;;;7.03;2.60;;;10.80;99.90;;;;;;5053279;28;20281;-78
2021/09/30 07:09:24;;;;;;;5.67;2.53;;;10.90;99.90;;;;;;5036426;28;20188;-76
2021/09/30 07:11:49;;;;;;;8.27;2.47;;;11.00;99.90;;;;;;5020036;28;20169;-77
2021/09/30 07:14:15;;;;;;;4.57;2.40;;;11.00;99.90;;;;;;5036354;28;20197;-77
2021/09/30 07:16:40;;;;;;;9.53;2.50;;;11.00;99.90;;;;;;5036390;28;20824;-77
2021/09/30 07:19:07;;;;;;;7.10;2.50;;;11.10;99.90;;;;;;5052862;28;20179;-77
2021/09/30 07:21:33;;;;;;;7.97;2.53;;;11.20;99.90;;;;;;5036676;28;20205;-77
2021/09/30 07:23:59;;;;;;;6.97;2.43;;;11.30;99.90;;;;;;5024456;28;20195;-74
2021/09/30 07:26:25;;;;;;;6.87;2.60;;;11.50;99.90;;;;;;5052985;28;20171;-74
2021/09/30 07:28:51;;;;;;;9.70;2.60;;;11.60;99.90;;;;;;5035918;28;20181;-76
2021/09/30 07:31:17;;;;;;;12.07;2.60;;;11.70;99.90;;;;;;5052761;28;20182;-76
2021/09/30 07:33:42;;;;;;;7.17;2.47;;;11.80;99.90;;;;;;5036081;28;20540;-75
2021/09/30 07:36:08;;;;;;;11.60;2.60;;;11.90;99.90;;;;;;5019882;28;20198;-74
2021/09/30 07:38:33;;;;;;;10.20;2.60;;;12.10;99.90;;;;;;5053745;28;20184;-76
2021/09/30 07:40:59;;;;;;;7.27;2.63;;;12.30;99.90;;;;;;5036413;28;20732;-76
2021/09/30 07:43:25;;;;;;;8.13;2.60;;;12.50;99.90;;;;;;5019282;28;20521;-76
2021/09/30 07:45:50;;;;;;;6.53;2.20;;;12.60;99.90;;;;;;5052629;28;20193;-74
2021/09/30 07:48:16;;;;;;;7.30;2.30;;;12.60;99.90;;;;;;5035652;28;20212;-74
2021/09/30 07:50:41;;;;;;;5.60;2.27;;;12.70;99.90;;;;;;5052614;28;20173;-74
2021/09/30 07:53:07;;;;;;;9.37;2.30;;;12.80;99.90;;;;;;5035752;28;20174;-74
2021/09/30 07:55:32;;;;;;;10.00;2.40;;;12.90;99.90;;;;;;5052263;28;20204;-74
2021/09/30 07:57:58;;;;;;;10.13;2.13;;;12.90;99.90;;;;;;5035210;28;20178;-74
2021/09/30 08:00:23;;;;;;;3.93;1.83;;;13.00;99.90;;;;;;5035388;28;20206;-74
2021/09/30 08:02:49;;;;;;;8.13;2.10;;;13.00;99.90;;;;;;5035720;28;20170;-74
2021/09/30 08:05:14;;;;;;;4.53;1.97;;;13.10;99.90;;;;;;5052205;28;20201;-74
2021/09/30 08:07:40;;;;;;;11.50;2.70;;;13.20;99.90;;;;;;5053069;28;20594;-74
2021/09/30 08:10:06;;;;;;;6.43;2.10;;;13.30;99.90;;;;;;5035376;28;20217;-74
2021/09/30 08:12:32;;;;;;;6.13;1.83;;;13.50;99.90;;;;;;5035128;28;20232;-74
2021/09/30 08:14:57;;;;;;;8.30;2.20;;;13.60;99.90;;;;;;5035248;28;20186;-74
2021/09/30 08:17:23;;;;;;;7.53;2.13;;;13.60;99.90;;;;;;5051626;28;20178;-74
2021/09/30 08:19:48;;;;;;;6.57;1.90;;;13.80;99.90;;;;;;5051568;28;20205;-74
2021/09/30 08:22:14;;;;;;;8.37;1.90;;;13.90;99.90;;;;;;5051825;28;20174;-74
2021/09/30 08:24:39;;;;;;;7.67;1.93;;;14.00;99.90;;;;;;5035020;28;20243;-74
2021/09/30 08:27:05;;;;;;;5.73;2.07;;;14.10;99.90;;;;;;5034875;28;20175;-74
2021/09/30 08:29:31;;;;;;;7.90;2.33;;;14.20;99.90;;;;;;5051453;28;20550;-74
2021/09/30 08:31:56;;;;;;;7.30;2.13;;;14.50;99.90;;;;;;5034704;28;20174;-74
2021/09/30 08:34:22;;;;;;;7.77;2.10;;;14.80;99.90;;;;;;5051478;28;20190;-74
2021/09/30 08:36:47;;;;;;;5.50;2.17;;;15.00;99.90;;;;;;5051508;28;20170;-74
2021/09/30 08:39:13;;;;;;;7.90;2.57;;;15.30;99.90;;;;;;5051224;28;20166;-74
2021/09/30 08:41:38;;;;;;;6.20;2.10;;;15.70;99.90;;;;;;5051256;28;20174;-74
2021/09/30 08:44:05;;;;;;;7.27;1.90;;;16.20;99.90;;;;;;5051273;28;20194;-74
2021/09/30 08:46:32;;;;;;;6.93;1.80;;;17.00;99.90;;;;;;5051193;28;20534;-74
2021/09/30 08:48:58;;;;;;;7.67;2.30;;;18.00;99.90;;;;;;5051082;28;20175;-74
2021/09/30 08:51:23;;;;;;;7.37;2.37;;;18.60;99.90;;;;;;5034598;28;20244;-74
2021/09/30 08:53:49;;;;;;;8.10;1.97;;;19.50;99.90;;;;;;5034658;28;20472;-74
2021/09/30 08:56:14;;;;;;;7.40;2.00;;;19.90;99.90;;;;;;5050758;28;20232;-74
2021/09/30 08:58:40;;;;;;;9.87;2.07;;;20.00;99.90;;;;;;5052059;28;20166;-74
2021/09/30 09:01:07;;;;;;;8.57;2.10;;;19.60;99.90;;;;;;5051005;28;20248;-74
2021/09/30 09:03:37;;;;;;;5.30;1.70;;;19.10;99.90;;;;;;5034129;28;20201;-74
2021/09/30 09:06:04;;;;;;;5.13;1.80;;;19.00;99.90;;;;;;5051569;28;20219;-73
2021/09/30 09:08:29;;;;;;;5.97;2.13;;;18.20;99.90;;;;;;5034131;28;20223;-73
2021/09/30 09:10:55;;;;;;;7.07;2.07;;;17.60;99.90;;;;;;5051607;28;20186;-73
2021/09/30 09:13:24;;;;;;;5.73;1.90;;;17.30;99.90;;;;;;5034253;28;20177;-74
2021/09/30 09:15:57;;;;;;;10.53;2.17;;;17.30;99.90;;;;;;5034552;28;20198;-74
2021/09/30 09:18:27;;;;;;;5.60;1.63;;;17.40;99.90;;;;;;5050211;28;20178;-74
2021/09/30 09:21:09;;;;;;;5.20;1.70;;;18.30;99.90;;;;;;5034085;28;20206;-74
2021/09/30 09:23:48;;;;;;;6.27;1.83;;;19.10;99.90;;;;;;5050537;28;20669;-73
2021/09/30 09:26:20;;;;;;;7.97;1.23;;;19.00;99.90;;;;;;5050683;28;20174;-73
2021/09/30 09:29:13;;;;;;;8.97;2.03;;;18.90;99.90;;;;;;5050501;28;20177;-74
2021/09/30 09:31:46;;;;;;;5.97;1.60;;;17.90;99.90;;;;;;5033872;28;20182;-73
2021/09/30 09:34:35;;;;;;;6.87;1.90;;;17.30;99.90;;;;;;5050600;28;20198;-74
2021/09/30 09:37:22;;;;;;;6.87;1.40;;;17.00;99.90;;;;;;5034620;28;20177;-74
2021/09/30 09:39:48;;;;;;;7.33;1.57;;;16.90;99.90;;;;;;5049990;28;20560;-74
2021/09/30 09:42:16;;;;;;;8.60;1.57;;;17.00;99.90;;;;;;5033889;28;20173;-73
2021/09/30 09:44:56;;;;;;;7.27;1.70;;;17.80;99.90;;;;;;5052084;28;20229;-73
2021/09/30 09:47:25;;;;;;;5.33;1.63;;;18.10;99.90;;;;;;5030712;28;20615;-74
2021/09/30 09:50:23;;;;;;;9.20;1.77;;;17.80;99.90;;;;;;5055550;28;20232;-73
2021/09/30 09:52:59;;;;;;;8.37;1.40;;;17.40;99.90;;;;;;5037167;28;20170;-73
2021/09/30 09:55:27;;;;;;;4.87;1.60;;;17.10;99.90;;;;;;5052706;28;20201;-74
2021/09/30 09:58:03;;;;;;;7.70;1.77;;;16.90;99.90;;;;;;5033614;28;20204;-73
2021/09/30 10:00:29;;;;;;;5.90;1.50;;;16.70;99.90;;;;;;5050275;28;20244;-73
2021/09/30 10:02:56;;;;;;;6.60;1.67;;;16.90;99.90;;;;;;5033465;28;20638;-75
2021/09/30 10:05:22;;;;;;;4.80;1.60;;;17.00;99.90;;;;;;5048518;28;20198;-73
2021/09/30 10:07:47;;;;;;;6.97;1.53;;;16.90;99.90;;;;;;5049098;28;20177;-73
2021/09/30 10:10:15;;;;;;;7.57;1.50;;;17.10;99.90;;;;;;5032800;28;20730;-73
2021/09/30 10:12:41;;;;;;;7.57;1.70;;;16.90;99.90;;;;;;5033000;28;20608;-74
2021/09/30 10:15:07;;;;;;;9.53;2.10;;;16.80;99.90;;;;;;5032493;28;20202;-74
2021/09/30 10:17:33;;;;;;;5.10;1.53;;;16.80;99.90;;;;;;5032404;28;20653;-73
2021/09/30 10:19:58;;;;;;;9.70;1.63;;;16.70;99.90;;;;;;5032667;28;20700;-74
2021/09/30 10:22:25;;;;;;;9.13;1.40;;;16.50;99.90;;;;;;5032905;28;20645;-73
2021/09/30 10:24:51;;;;;;;4.73;1.27;;;16.50;99.90;;;;;;5032553;28;20202;-74
2021/09/30 10:27:16;;;;;;;8.13;1.70;;;16.40;99.90;;;;;;5032912;28;20550;-74
2021/09/30 10:29:46;;;;;;;6.27;1.47;;;16.40;99.90;;;;;;5035953;28;20167;-75
2021/09/30 10:32:16;;;;;;;4.80;1.40;;;16.40;99.90;;;;;;5036367;28;20247;-75
2021/09/30 10:34:44;;;;;;;5.50;1.40;;;16.30;99.90;;;;;;5052893;28;20198;-75
2021/09/30 10:37:32;;;;;;;6.50;1.70;;;16.40;99.90;;;;;;5035765;28;20216;-75
2021/09/30 10:40:21;;;;;;;10.03;1.70;;;16.60;99.90;;;;;;5037426;28;20255;-75
2021/09/30 10:42:56;;;;;;;5.70;1.73;;;16.50;99.90;;;;;;5052475;28;20174;-74
2021/09/30 10:45:38;;;;;;;6.47;1.87;;;16.20;99.90;;;;;;5035744;28;20196;-74
2021/09/30 10:48:07;;;;;;;6.17;1.30;;;15.90;99.90;;;;;;5035821;28;20177;-75
2021/09/30 10:50:46;;;;;;;6.47;1.70;;;15.70;99.90;;;;;;5041213;28;20182;-75
2021/09/30 10:53:12;;;;;;;6.90;1.73;;;15.60;99.90;;;;;;5054454;28;20177;-75
2021/09/30 10:55:37;;;;;;;5.53;1.40;;;15.50;99.90;;;;;;5055459;28;20251;-75
2021/09/30 10:58:03;;;;;;;8.20;1.57;;;15.40;99.90;;;;;;5050198;28;20181;-75
2021/09/30 11:00:34;;;;;;;5.57;1.30;;;15.40;99.90;;;;;;5031422;28;20198;-75
2021/09/30 11:03:02;;;;;;;6.70;1.30;;;15.30;99.90;;;;;;5053068;28;20649;-75
2021/09/30 11:05:29;;;;;;;6.63;1.40;;;15.30;99.90;;;;;;5016633;28;1069156;-75
2021/09/30 11:08:16;;;;;;;5.67;1.70;;;15.40;99.90;;;;;;5025879;28;20618;-75
2021/09/30 11:13:49;;;;;;;5.07;1.43;;;15.40;99.90;;;;;;5053142;28;20182;-75
2021/09/30 11:16:16;;;;;;;6.03;1.47;;;15.30;99.90;;;;;;5053172;28;20232;-75
2021/09/30 11:18:54;;;;;;;3.63;1.30;;;15.40;99.90;;;;;;5036460;28;20209;-75
2021/09/30 11:21:32;;;;;;;6.73;1.37;;;15.30;99.90;;;;;;5056185;28;20681;-75
2021/09/30 11:24:07;;;;;;;6.73;1.50;;;15.30;99.90;;;;;;5054725;28;20229;-75
2021/09/30 11:26:56;;;;;;;8.87;1.40;;;15.40;99.90;;;;;;5052249;28;20554;-74
2021/09/30 11:29:21;;;;;;;6.87;1.30;;;15.50;99.90;;;;;;5073414;28;20180;-75
2021/09/30 11:31:59;;;;;;;2.90;1.13;;;15.50;99.90;;;;;;5063459;28;20182;-75
2021/09/30 11:34:26;;;;;;;4.30;1.10;;;15.30;99.90;;;;;;5064789;28;20225;-74
2021/09/30 11:36:53;;;;;;;4.97;1.00;;;15.20;99.90;;;;;;5052562;28;20186;-74
2021/09/30 11:39:18;;;;;;;9.40;1.30;;;15.30;99.90;;;;;;5067758;28;20170;-74
2021/09/30 11:41:45;;;;;;;6.77;1.40;;;15.50;99.90;;;;;;5022736;28;20212;-74
2021/09/30 11:44:17;;;;;;;3.10;0.90;;;15.60;99.90;;;;;;5052229;28;20283;-75
2021/09/30 11:46:43;;;;;;;3.83;1.00;;;15.80;99.90;;;;;;5035893;28;20185;-74
2021/09/30 11:49:10;;;;;;;4.63;0.83;;;16.00;99.90;;;;;;5035472;28;20549;-75
2021/09/30 11:51:41;;;;;;;6.23;1.50;;;16.10;99.90;;;;;;5053489;28;20170;-75
2021/09/30 11:54:08;;;;;;;2.23;1.00;;;16.40;99.90;;;;;;5052134;28;20280;-75
2021/09/30 11:56:41;;;;;;;3.40;1.00;;;16.40;99.90;;;;;;5052289;28;20201;-75
2021/09/30 11:59:08;;;;;;;5.53;1.30;;;16.60;99.90;;;;;;5052084;28;20205;-75
2021/09/30 12:01:37;;;;;;;3.33;1.10;;;16.60;99.90;;;;;;5035510;28;20294;-75
2021/09/30 12:04:04;;;;;;;2.93;1.17;;;16.50;99.90;;;;;;5051824;28;20292;-74
2021/09/30 12:06:45;;;;;;;2.97;1.10;;;16.40;99.90;;;;;;5051926;28;20235;-74
2021/09/30 12:09:15;;;;;;;5.80;1.20;;;16.20;99.90;;;;;;5058116;28;20174;-74
2021/09/30 12:11:51;;;;;;;5.37;1.53;;;16.10;99.90;;;;;;5048893;28;20657;-75
2021/09/30 12:14:17;;;;;;;6.53;1.40;;;16.10;99.90;;;;;;5045905;28;20585;-74
2021/09/30 12:16:57;;;;;;;6.63;1.90;;;16.10;99.90;;;;;;5053481;28;20178;-75
2021/09/30 12:19:34;;;;;;;4.60;1.50;;;16.10;99.90;;;;;;5044066;28;20181;-74
2021/09/30 12:22:00;;;;;;;4.87;1.40;;;16.10;99.90;;;;;;5041897;28;20181;-74
2021/09/30 12:24:27;;;;;;;6.17;1.40;;;16.00;99.90;;;;;;5046863;28;20284;-74
2021/09/30 12:26:52;;;;;;;4.67;1.70;;;16.00;99.90;;;;;;5035127;28;20675;-74
2021/09/30 12:29:18;;;;;;;7.60;1.60;;;16.00;99.90;;;;;;5051193;28;20257;-74
2021/09/30 12:31:45;;;;;;;5.47;1.70;;;15.90;99.90;;;;;;5051569;28;20284;-74
2021/09/30 12:34:23;;;;;;;5.50;1.60;;;15.80;99.90;;;;;;5034921;28;20673;-74
2021/09/30 12:36:49;;;;;;;4.27;1.30;;;15.90;99.90;;;;;;5051299;28;20174;-74
2021/09/30 12:39:14;;;;;;;5.07;1.50;;;16.00;99.90;;;;;;5051133;28;20236;-74
2021/09/30 12:41:41;;;;;;;5.37;1.50;;;16.10;99.90;;;;;;5034345;28;20213;-74
2021/09/30 12:44:11;;;;;;;3.60;1.10;;;16.20;99.90;;;;;;5051392;28;20443;-74
2021/09/30 12:46:43;;;;;;;9.57;1.30;;;16.20;99.90;;;;;;5034590;28;20174;-74
2021/09/30 12:49:08;;;;;;;3.53;1.20;;;16.30;99.90;;;;;;5034352;28;20174;-74
2021/09/30 12:51:34;;;;;;;7.50;1.50;;;16.40;99.90;;;;;;5034016;28;20699;-74
2021/09/30 12:54:00;;;;;;;7.27;1.60;;;16.40;99.90;;;;;;5034536;28;20194;-74
2021/09/30 12:56:30;;;;;;;4.67;1.60;;;16.40;99.90;;;;;;5052277;28;20178;-74
2021/09/30 12:58:55;;;;;;;6.17;1.10;;;16.20;99.90;;;;;;5050925;28;20177;-74
2021/09/30 13:01:30;;;;;;;5.13;1.60;;;16.00;99.90;;;;;;5041485;28;20206;-74
2021/09/30 13:04:08;;;;;;;8.03;1.43;;;16.00;99.90;;;;;;5034231;28;20205;-74
2021/09/30 13:06:34;;;;;;;5.63;1.60;;;16.00;99.90;;;;;;5052119;28;20231;-74
2021/09/30 13:08:59;;;;;;;2.90;1.50;;;15.90;99.90;;;;;;5071903;28;20169;-74
2021/09/30 13:11:32;;;;;;;4.20;1.40;;;15.90;99.90;;;;;;5070878;28;20256;-74
2021/09/30 13:14:16;;;;;;;5.00;1.50;;;15.90;99.90;;;;;;5070684;28;20198;-75
2021/09/30 13:16:42;;;;;;;4.83;1.17;;;16.00;99.90;;;;;;5070563;28;20183;-74
2021/09/30 13:19:08;;;;;;;3.60;1.47;;;16.00;99.90;;;;;;5052955;28;20693;-74
2021/09/30 13:21:59;;;;;;;5.03;0.90;;;16.10;99.90;;;;;;5034055;28;20297;-74
2021/09/30 13:24:25;;;;;;;4.80;1.17;;;16.10;99.90;;;;;;5034114;28;20252;-74
2021/09/30 13:26:51;;;;;;;5.53;1.30;;;16.10;99.90;;;;;;5044222;28;20610;-74
2021/09/30 13:29:16;;;;;;;4.03;1.03;;;16.10;99.90;;;;;;5053941;28;20174;-74
2021/09/30 13:31:42;;;;;;;4.17;1.17;;;16.10;99.90;;;;;;5050645;28;20214;-74
2021/09/30 13:34:07;;;;;;;3.20;1.30;;;16.20;99.90;;;;;;5033959;28;20290;-75
2021/09/30 13:36:33;;;;;;;3.53;1.00;;;16.10;99.90;;;;;;5036157;28;20186;-73
2021/09/30 13:38:59;;;;;;;3.93;1.40;;;16.10;99.90;;;;;;5050389;28;20182;-74
2021/09/30 13:41:24;;;;;;;4.53;1.33;;;16.10;99.90;;;;;;5050414;28;20582;-74
2021/09/30 13:43:51;;;;;;;3.83;1.43;;;16.20;99.90;;;;;;5050188;28;20194;-74
2021/09/30 13:46:17;;;;;;;2.57;1.40;;;16.00;99.90;;;;;;5050623;28;20173;-74
2021/09/30 13:48:42;;;;;;;3.47;1.00;;;16.10;99.90;;;;;;5050293;28;20170;-74
2021/09/30 13:51:08;;;;;;;3.93;1.27;;;16.00;99.90;;;;;;5050455;28;20661;-74
2021/09/30 13:53:33;;;;;;;5.07;1.10;;;16.00;99.90;;;;;;5050420;28;20185;-74
2021/09/30 13:55:59;;;;;;;2.97;1.03;;;16.00;99.90;;;;;;5050193;28;20194;-74
2021/09/30 13:58:24;;;;;;;4.03;1.10;;;16.00;99.90;;;;;;5051263;28;20553;-74
2021/09/30 14:00:50;;;;;;;4.10;1.00;;;16.00;99.90;;;;;;5033636;28;20689;-74
2021/09/30 14:03:15;;;;;;;3.90;0.97;;;16.10;99.90;;;;;;5052083;28;20279;-74
2021/09/30 14:05:41;;;;;;;4.07;1.30;;;16.10;99.90;;;;;;5054016;28;20210;-74
2021/09/30 14:08:08;;;;;;;2.93;1.00;;;16.10;99.90;;;;;;5054363;28;20182;-76
2021/09/30 14:10:33;;;;;;;5.10;1.10;;;16.20;99.90;;;;;;5055061;28;20174;-75
2021/09/30 14:12:59;;;;;;;3.30;0.93;;;16.00;99.90;;;;;;5054482;28;20671;-76
2021/09/30 14:15:24;;;;;;;4.67;1.13;;;16.00;99.90;;;;;;5054146;28;20260;-76
2021/09/30 14:17:50;;;;;;;3.87;1.00;;;16.00;99.90;;;;;;5053987;28;20182;-77
2021/09/30 14:20:16;;;;;;;3.57;1.10;;;16.00;99.90;;;;;;5037410;28;20627;-77
2021/09/30 14:22:41;;;;;;;6.03;1.13;;;16.00;99.90;;;;;;5037876;28;20174;-76
2021/09/30 14:25:07;;;;;;;3.50;1.13;;;16.00;99.90;;;;;;5056821;28;20277;-76
2021/09/30 14:27:34;;;;;;;4.63;1.10;;;16.00;99.90;;;;;;5037567;28;20182;-77
2021/09/30 14:30:00;;;;;;;3.50;1.00;;;16.00;99.90;;;;;;5055129;28;20174;-77
2021/09/30 14:32:25;;;;;;;4.80;1.20;;;15.90;99.90;;;;;;5037541;28;20181;-75
2021/09/30 14:34:51;;;;;;;6.33;1.97;;;15.90;99.90;;;;;;5037426;28;20213;-75
2021/09/30 14:37:16;;;;;;;1.93;0.87;;;15.80;99.90;;;;;;5021109;28;20174;-76
2021/09/30 14:39:42;;;;;;;4.17;1.07;;;15.80;99.90;;;;;;5037047;28;20182;-74
2021/09/30 14:42:09;;;;;;;4.27;1.13;;;15.90;99.90;;;;;;5055012;28;20212;-75
2021/09/30 14:44:34;;;;;;;3.47;1.10;;;15.80;99.90;;;;;;5053742;28;20567;-74
2021/09/30 14:47:01;;;;;;;4.07;1.10;;;15.80;99.90;;;;;;5037218;28;20170;-75
2021/09/30 14:49:27;;;;;;;3.00;1.00;;;15.80;99.90;;;;;;5037109;28;20173;-76
2021/09/30 14:51:52;;;;;;;6.27;1.10;;;15.80;99.90;;;;;;5037150;28;20178;-75
2021/09/30 14:54:19;;;;;;;2.63;1.00;;;15.70;99.90;;;;;;5053452;28;20201;-76
2021/09/30 14:56:47;;;;;;;5.07;1.03;;;15.60;99.90;;;;;;5036843;28;20185;-76
2021/09/30 14:59:13;;;;;;;2.80;0.87;;;15.60;99.90;;;;;;5053245;28;20197;-76
2021/09/30 15:01:38;;;;;;;6.07;1.30;;;15.50;99.90;;;;;;5053253;28;20669;-76
2021/09/30 15:04:06;;;;;;;3.93;1.47;;;15.50;99.90;;;;;;5037012;28;20255;-76
2021/09/30 15:06:37;;;;;;;5.53;1.30;;;15.50;99.90;;;;;;5036989;28;20257;-76
2021/09/30 15:09:03;;;;;;;4.23;1.00;;;15.50;99.90;;;;;;5036576;28;20265;-76
2021/09/30 15:11:28;;;;;;;2.63;1.10;;;15.50;99.90;;;;;;5036501;28;20732;-76
2021/09/30 15:13:54;;;;;;;3.80;1.20;;;15.40;99.90;;;;;;5052954;28;20268;-76
2021/09/30 15:16:20;;;;;;;2.77;1.10;;;15.40;99.90;;;;;;5036426;28;20630;-76
2021/09/30 15:21:26;;;;;;;4.53;1.10;;;15.30;99.90;;;;;;5036387;28;20284;-76
2021/09/30 15:23:55;;;;;;;5.07;1.13;;;15.30;99.90;;;;;;5038455;28;20197;-76
2021/09/30 15:26:21;;;;;;;4.73;1.20;;;15.30;99.90;;;;;;5036679;28;20656;-76
2021/09/30 15:28:46;;;;;;;6.00;1.67;;;15.30;99.90;;;;;;5052649;28;20253;-76
2021/09/30 15:31:12;;;;;;;4.83;1.40;;;15.30;99.90;;;;;;5052790;28;20184;-76
2021/09/30 15:33:38;;;;;;;4.90;1.27;;;15.30;99.90;;;;;;5036420;28;20274;-76
2021/09/30 15:36:04;;;;;;;4.03;1.03;;;15.20;99.90;;;;;;5036416;28;20261;-76
2021/09/30 15:38:30;;;;;;;6.00;1.80;;;15.20;99.90;;;;;;5052535;28;20645;-76
2021/09/30 15:40:55;;;;;;;4.90;1.53;;;15.20;99.90;;;;;;5036229;28;20281;-76
2021/09/30 15:43:22;;;;;;;4.80;1.40;;;15.30;99.90;;;;;;5036143;28;20174;-76
2021/09/30 15:45:48;;;;;;;2.90;1.20;;;15.20;99.90;;;;;;5036285;28;20198;-76
2021/09/30 15:48:13;;;;;;;4.27;1.30;;;15.20;99.90;;;;;;5035899;28;20173;-75
2021/09/30 15:50:39;;;;;;;5.37;1.57;;;15.20;99.90;;;;;;5035759;28;20668;-76